sensor_id;sensor_type;location;lat;lon;timestamp;P1;durP1;ratioP1;P2;durP2;ratioP2
52708;SDS011;38606;52.986;6.980;2023-03-13T00:01:44;41.33;;;6.53;;
52708;SDS011;38606;52.986;6.980;2023-03-13T00:04:11;44.50;;;6.95;;
52708;SDS011;38606;52.986;6.980;2023-03-13T00:06:37;47.67;;;7.30;;
52708;SDS011;38606;52.986;6.980;2023-03-13T00:09:05;42.83;;;6.05;;
52708;SDS011;38606;52.986;6.980;2023-03-13T00:11:32;25.38;;;5.25;;
52708;SDS011;38606;52.986;6.980;2023-03-13T00:13:58;45.78;;;6.40;;
52708;SDS011;38606;52.986;6.980;2023-03-13T00:16:26;43.60;;;6.25;;
52708;SDS011;38606;52.986;6.980;2023-03-13T00:18:53;43.05;;;6.85;;
52708;SDS011;38606;52.986;6.980;2023-03-13T00:21:21;37.05;;;5.60;;
52708;SDS011;38606;52.986;6.980;2023-03-13T00:23:48;42.33;;;5.30;;
52708;SDS011;38606;52.986;6.980;2023-03-13T00:26:15;38.38;;;6.28;;
52708;SDS011;38606;52.986;6.980;2023-03-13T00:28:43;41.15;;;5.80;;
52708;SDS011;38606;52.986;6.980;2023-03-13T00:31:13;41.58;;;6.32;;
52708;SDS011;38606;52.986;6.980;2023-03-13T00:33:50;44.13;;;6.97;;
52708;SDS011;38606;52.986;6.980;2023-03-13T00:36:19;38.70;;;6.43;;
52708;SDS011;38606;52.986;6.980;2023-03-13T00:38:50;39.60;;;5.97;;
52708;SDS011;38606;52.986;6.980;2023-03-13T00:41:17;42.22;;;5.65;;
52708;SDS011;38606;52.986;6.980;2023-03-13T00:43:48;44.92;;;7.15;;
52708;SDS011;38606;52.986;6.980;2023-03-13T00:46:15;34.85;;;4.85;;
52708;SDS011;38606;52.986;6.980;2023-03-13T00:48:43;41.45;;;6.20;;
52708;SDS011;38606;52.986;6.980;2023-03-13T00:51:09;34.50;;;5.72;;
52708;SDS011;38606;52.986;6.980;2023-03-13T00:53:35;40.63;;;6.22;;
52708;SDS011;38606;52.986;6.980;2023-03-13T00:56:02;40.90;;;6.32;;
52708;SDS011;38606;52.986;6.980;2023-03-13T00:58:30;38.30;;;5.55;;
52708;SDS011;38606;52.986;6.980;2023-03-13T01:01:06;38.28;;;5.68;;
52708;SDS011;38606;52.986;6.980;2023-03-13T01:03:33;41.03;;;6.20;;
52708;SDS011;38606;52.986;6.980;2023-03-13T01:06:00;36.63;;;5.50;;
52708;SDS011;38606;52.986;6.980;2023-03-13T01:08:27;41.10;;;5.75;;
52708;SDS011;38606;52.986;6.980;2023-03-13T01:11:00;27.42;;;6.03;;
52708;SDS011;38606;52.986;6.980;2023-03-13T01:13:28;39.78;;;5.93;;
52708;SDS011;38606;52.986;6.980;2023-03-13T01:15:57;33.42;;;5.63;;
52708;SDS011;38606;52.986;6.980;2023-03-13T01:18:27;35.47;;;5.72;;
52708;SDS011;38606;52.986;6.980;2023-03-13T01:20:53;26.75;;;5.22;;
52708;SDS011;38606;52.986;6.980;2023-03-13T01:23:18;39.05;;;6.15;;
52708;SDS011;38606;52.986;6.980;2023-03-13T01:25:44;40.10;;;6.18;;
52708;SDS011;38606;52.986;6.980;2023-03-13T01:28:10;37.40;;;6.43;;
52708;SDS011;38606;52.986;6.980;2023-03-13T01:30:35;34.67;;;5.30;;
52708;SDS011;38606;52.986;6.980;2023-03-13T01:33:01;41.42;;;5.95;;
52708;SDS011;38606;52.986;6.980;2023-03-13T01:35:27;37.58;;;7.00;;
52708;SDS011;38606;52.986;6.980;2023-03-13T01:37:52;34.45;;;6.05;;
52708;SDS011;38606;52.986;6.980;2023-03-13T01:40:18;32.28;;;5.95;;
52708;SDS011;38606;52.986;6.980;2023-03-13T01:42:54;32.83;;;5.30;;
52708;SDS011;38606;52.986;6.980;2023-03-13T01:48:21;30.90;;;4.88;;
52708;SDS011;38606;52.986;6.980;2023-03-13T01:50:56;30.55;;;5.75;;
52708;SDS011;38606;52.986;6.980;2023-03-13T01:53:25;33.85;;;5.90;;
52708;SDS011;38606;52.986;6.980;2023-03-13T01:55:54;23.55;;;4.90;;
52708;SDS011;38606;52.986;6.980;2023-03-13T01:58:21;37.17;;;5.57;;
52708;SDS011;38606;52.986;6.980;2023-03-13T02:00:47;30.50;;;5.82;;
52708;SDS011;38606;52.986;6.980;2023-03-13T02:03:14;28.05;;;4.65;;
52708;SDS011;38606;52.986;6.980;2023-03-13T02:05:43;25.80;;;5.35;;
52708;SDS011;38606;52.986;6.980;2023-03-13T02:08:22;36.47;;;6.30;;
52708;SDS011;38606;52.986;6.980;2023-03-13T02:10:57;37.45;;;5.80;;
52708;SDS011;38606;52.986;6.980;2023-03-13T02:13:31;37.38;;;5.43;;
52708;SDS011;38606;52.986;6.980;2023-03-13T02:15:57;32.35;;;5.30;;
52708;SDS011;38606;52.986;6.980;2023-03-13T02:18:23;27.98;;;5.20;;
52708;SDS011;38606;52.986;6.980;2023-03-13T02:20:50;32.88;;;4.90;;
52708;SDS011;38606;52.986;6.980;2023-03-13T02:23:56;31.15;;;5.45;;
52708;SDS011;38606;52.986;6.980;2023-03-13T02:26:33;23.38;;;4.30;;
52708;SDS011;38606;52.986;6.980;2023-03-13T02:28:59;30.88;;;5.53;;
52708;SDS011;38606;52.986;6.980;2023-03-13T02:31:25;27.15;;;4.97;;
52708;SDS011;38606;52.986;6.980;2023-03-13T02:33:51;31.92;;;5.13;;
52708;SDS011;38606;52.986;6.980;2023-03-13T02:36:18;40.47;;;5.88;;
52708;SDS011;38606;52.986;6.980;2023-03-13T02:38:47;33.47;;;5.30;;
52708;SDS011;38606;52.986;6.980;2023-03-13T02:41:20;39.17;;;6.28;;
52708;SDS011;38606;52.986;6.980;2023-03-13T02:43:48;31.80;;;5.25;;
52708;SDS011;38606;52.986;6.980;2023-03-13T02:46:18;32.28;;;5.28;;
52708;SDS011;38606;52.986;6.980;2023-03-13T02:48:45;31.45;;;5.47;;
52708;SDS011;38606;52.986;6.980;2023-03-13T02:51:16;26.45;;;5.72;;
52708;SDS011;38606;52.986;6.980;2023-03-13T02:53:42;27.08;;;5.30;;
52708;SDS011;38606;52.986;6.980;2023-03-13T02:56:11;21.25;;;5.38;;
52708;SDS011;38606;52.986;6.980;2023-03-13T02:58:42;17.38;;;4.63;;
52708;SDS011;38606;52.986;6.980;2023-03-13T03:01:08;22.63;;;4.68;;
52708;SDS011;38606;52.986;6.980;2023-03-13T03:03:34;23.40;;;4.93;;
52708;SDS011;38606;52.986;6.980;2023-03-13T03:06:04;19.52;;;4.85;;
52708;SDS011;38606;52.986;6.980;2023-03-13T03:08:31;19.60;;;5.55;;
52708;SDS011;38606;52.986;6.980;2023-03-13T03:10:57;16.77;;;4.30;;
52708;SDS011;38606;52.986;6.980;2023-03-13T03:13:23;21.65;;;3.90;;
52708;SDS011;38606;52.986;6.980;2023-03-13T03:15:49;10.57;;;3.53;;
52708;SDS011;38606;52.986;6.980;2023-03-13T03:18:14;18.80;;;3.88;;
52708;SDS011;38606;52.986;6.980;2023-03-13T03:20:40;20.08;;;4.05;;
52708;SDS011;38606;52.986;6.980;2023-03-13T03:23:06;16.45;;;4.40;;
52708;SDS011;38606;52.986;6.980;2023-03-13T03:25:32;17.10;;;3.63;;
52708;SDS011;38606;52.986;6.980;2023-03-13T03:27:57;13.70;;;3.88;;
52708;SDS011;38606;52.986;6.980;2023-03-13T03:30:23;12.02;;;3.38;;
52708;SDS011;38606;52.986;6.980;2023-03-13T03:32:48;10.73;;;3.22;;
52708;SDS011;38606;52.986;6.980;2023-03-13T03:35:14;8.85;;;3.00;;
52708;SDS011;38606;52.986;6.980;2023-03-13T03:37:40;12.85;;;3.22;;
52708;SDS011;38606;52.986;6.980;2023-03-13T03:40:06;13.57;;;3.50;;
52708;SDS011;38606;52.986;6.980;2023-03-13T03:42:32;11.32;;;3.88;;
52708;SDS011;38606;52.986;6.980;2023-03-13T03:44:58;5.75;;;2.83;;
52708;SDS011;38606;52.986;6.980;2023-03-13T03:47:24;9.52;;;3.05;;
52708;SDS011;38606;52.986;6.980;2023-03-13T03:49:49;9.50;;;3.40;;
52708;SDS011;38606;52.986;6.980;2023-03-13T03:52:15;7.28;;;2.97;;
52708;SDS011;38606;52.986;6.980;2023-03-13T03:54:41;8.00;;;3.50;;
52708;SDS011;38606;52.986;6.980;2023-03-13T03:57:07;7.63;;;3.50;;
52708;SDS011;38606;52.986;6.980;2023-03-13T03:59:33;7.60;;;3.78;;
52708;SDS011;38606;52.986;6.980;2023-03-13T04:01:58;7.93;;;3.33;;
52708;SDS011;38606;52.986;6.980;2023-03-13T04:04:24;8.00;;;3.95;;
52708;SDS011;38606;52.986;6.980;2023-03-13T04:06:51;7.30;;;3.85;;
52708;SDS011;38606;52.986;6.980;2023-03-13T04:09:16;9.32;;;4.07;;
52708;SDS011;38606;52.986;6.980;2023-03-13T04:11:42;8.38;;;4.03;;
52708;SDS011;38606;52.986;6.980;2023-03-13T04:14:08;13.25;;;4.90;;
52708;SDS011;38606;52.986;6.980;2023-03-13T04:16:33;10.32;;;4.65;;
52708;SDS011;38606;52.986;6.980;2023-03-13T04:18:59;12.35;;;4.50;;
52708;SDS011;38606;52.986;6.980;2023-03-13T04:21:25;10.48;;;4.10;;
52708;SDS011;38606;52.986;6.980;2023-03-13T04:23:51;14.35;;;4.60;;
52708;SDS011;38606;52.986;6.980;2023-03-13T04:26:16;9.60;;;4.20;;
52708;SDS011;38606;52.986;6.980;2023-03-13T04:28:42;10.85;;;4.10;;
52708;SDS011;38606;52.986;6.980;2023-03-13T04:31:08;9.35;;;4.10;;
52708;SDS011;38606;52.986;6.980;2023-03-13T04:33:33;6.40;;;4.22;;
52708;SDS011;38606;52.986;6.980;2023-03-13T04:36:01;10.95;;;4.35;;
52708;SDS011;38606;52.986;6.980;2023-03-13T04:38:26;7.57;;;3.85;;
52708;SDS011;38606;52.986;6.980;2023-03-13T04:40:52;8.75;;;4.28;;
52708;SDS011;38606;52.986;6.980;2023-03-13T04:43:18;8.23;;;4.88;;
52708;SDS011;38606;52.986;6.980;2023-03-13T04:45:44;9.32;;;4.47;;
52708;SDS011;38606;52.986;6.980;2023-03-13T04:48:10;7.07;;;3.85;;
52708;SDS011;38606;52.986;6.980;2023-03-13T04:50:36;6.57;;;4.50;;
52708;SDS011;38606;52.986;6.980;2023-03-13T04:53:02;9.00;;;4.75;;
52708;SDS011;38606;52.986;6.980;2023-03-13T04:55:27;9.23;;;4.85;;
52708;SDS011;38606;52.986;6.980;2023-03-13T04:57:53;8.15;;;4.82;;
52708;SDS011;38606;52.986;6.980;2023-03-13T05:00:19;10.32;;;5.10;;
52708;SDS011;38606;52.986;6.980;2023-03-13T05:02:45;6.68;;;4.50;;
52708;SDS011;38606;52.986;6.980;2023-03-13T05:05:10;7.55;;;4.60;;
52708;SDS011;38606;52.986;6.980;2023-03-13T05:07:36;9.73;;;4.75;;
52708;SDS011;38606;52.986;6.980;2023-03-13T05:10:02;11.02;;;5.22;;
52708;SDS011;38606;52.986;6.980;2023-03-13T05:12:28;8.23;;;5.00;;
52708;SDS011;38606;52.986;6.980;2023-03-13T05:14:53;8.77;;;5.18;;
52708;SDS011;38606;52.986;6.980;2023-03-13T05:17:19;9.68;;;5.38;;
52708;SDS011;38606;52.986;6.980;2023-03-13T05:19:45;12.52;;;5.60;;
52708;SDS011;38606;52.986;6.980;2023-03-13T05:22:11;8.45;;;5.78;;
52708;SDS011;38606;52.986;6.980;2023-03-13T05:24:36;7.32;;;5.55;;
52708;SDS011;38606;52.986;6.980;2023-03-13T05:27:02;12.35;;;6.05;;
52708;SDS011;38606;52.986;6.980;2023-03-13T05:29:28;9.77;;;6.00;;
52708;SDS011;38606;52.986;6.980;2023-03-13T05:31:53;8.95;;;5.05;;
52708;SDS011;38606;52.986;6.980;2023-03-13T05:34:19;10.02;;;5.78;;
52708;SDS011;38606;52.986;6.980;2023-03-13T05:36:45;10.75;;;5.97;;
52708;SDS011;38606;52.986;6.980;2023-03-13T05:39:10;9.27;;;5.60;;
52708;SDS011;38606;52.986;6.980;2023-03-13T05:41:36;9.65;;;5.95;;
52708;SDS011;38606;52.986;6.980;2023-03-13T05:44:02;10.05;;;6.13;;
52708;SDS011;38606;52.986;6.980;2023-03-13T05:46:28;9.23;;;5.93;;
52708;SDS011;38606;52.986;6.980;2023-03-13T05:48:53;8.07;;;5.93;;
52708;SDS011;38606;52.986;6.980;2023-03-13T05:51:19;10.35;;;6.05;;
52708;SDS011;38606;52.986;6.980;2023-03-13T05:53:45;10.18;;;6.45;;
52708;SDS011;38606;52.986;6.980;2023-03-13T05:56:10;8.23;;;5.93;;
52708;SDS011;38606;52.986;6.980;2023-03-13T05:58:36;11.38;;;6.03;;
52708;SDS011;38606;52.986;6.980;2023-03-13T06:01:06;8.07;;;5.63;;
52708;SDS011;38606;52.986;6.980;2023-03-13T06:03:33;9.98;;;6.03;;
52708;SDS011;38606;52.986;6.980;2023-03-13T06:05:59;8.20;;;5.70;;
52708;SDS011;38606;52.986;6.980;2023-03-13T06:08:24;8.32;;;6.22;;
52708;SDS011;38606;52.986;6.980;2023-03-13T06:10:50;8.38;;;6.07;;
52708;SDS011;38606;52.986;6.980;2023-03-13T06:13:16;8.95;;;6.18;;
52708;SDS011;38606;52.986;6.980;2023-03-13T06:15:41;12.02;;;6.47;;
52708;SDS011;38606;52.986;6.980;2023-03-13T06:18:07;12.32;;;7.05;;
52708;SDS011;38606;52.986;6.980;2023-03-13T06:20:33;11.05;;;6.90;;
52708;SDS011;38606;52.986;6.980;2023-03-13T06:22:58;11.60;;;5.88;;
52708;SDS011;38606;52.986;6.980;2023-03-13T06:25:24;10.75;;;6.57;;
52708;SDS011;38606;52.986;6.980;2023-03-13T06:27:50;13.68;;;6.53;;
52708;SDS011;38606;52.986;6.980;2023-03-13T06:30:16;11.32;;;6.35;;
52708;SDS011;38606;52.986;6.980;2023-03-13T06:32:42;9.32;;;5.88;;
52708;SDS011;38606;52.986;6.980;2023-03-13T06:35:07;8.70;;;6.47;;
52708;SDS011;38606;52.986;6.980;2023-03-13T06:37:33;10.95;;;5.97;;
52708;SDS011;38606;52.986;6.980;2023-03-13T06:39:59;12.93;;;6.85;;
52708;SDS011;38606;52.986;6.980;2023-03-13T06:42:25;12.63;;;6.95;;
52708;SDS011;38606;52.986;6.980;2023-03-13T06:44:50;14.05;;;6.03;;
52708;SDS011;38606;52.986;6.980;2023-03-13T06:47:16;11.52;;;6.00;;
52708;SDS011;38606;52.986;6.980;2023-03-13T06:49:42;10.30;;;5.93;;
52708;SDS011;38606;52.986;6.980;2023-03-13T06:52:07;12.75;;;6.43;;
52708;SDS011;38606;52.986;6.980;2023-03-13T06:54:33;14.20;;;6.18;;
52708;SDS011;38606;52.986;6.980;2023-03-13T06:56:59;18.00;;;6.53;;
52708;SDS011;38606;52.986;6.980;2023-03-13T06:59:25;13.98;;;5.40;;
52708;SDS011;38606;52.986;6.980;2023-03-13T07:01:50;11.88;;;5.55;;
52708;SDS011;38606;52.986;6.980;2023-03-13T07:04:16;10.18;;;4.82;;
52708;SDS011;38606;52.986;6.980;2023-03-13T07:06:42;11.50;;;4.95;;
52708;SDS011;38606;52.986;6.980;2023-03-13T07:09:07;12.98;;;4.40;;
52708;SDS011;38606;52.986;6.980;2023-03-13T07:11:34;13.65;;;4.32;;
52708;SDS011;38606;52.986;6.980;2023-03-13T07:14:00;13.00;;;5.15;;
52708;SDS011;38606;52.986;6.980;2023-03-13T07:16:26;15.80;;;4.25;;
52708;SDS011;38606;52.986;6.980;2023-03-13T07:18:52;15.68;;;4.93;;
52708;SDS011;38606;52.986;6.980;2023-03-13T07:21:18;13.57;;;4.20;;
52708;SDS011;38606;52.986;6.980;2023-03-13T07:23:43;10.10;;;4.50;;
52708;SDS011;38606;52.986;6.980;2023-03-13T07:26:10;13.82;;;4.00;;
52708;SDS011;38606;52.986;6.980;2023-03-13T07:28:40;15.95;;;4.43;;
52708;SDS011;38606;52.986;6.980;2023-03-13T07:33:39;16.95;;;4.65;;
52708;SDS011;38606;52.986;6.980;2023-03-13T07:36:06;12.38;;;3.70;;
52708;SDS011;38606;52.986;6.980;2023-03-13T07:38:32;13.38;;;4.20;;
52708;SDS011;38606;52.986;6.980;2023-03-13T07:40:58;8.93;;;3.80;;
52708;SDS011;38606;52.986;6.980;2023-03-13T07:43:24;11.85;;;3.95;;
52708;SDS011;38606;52.986;6.980;2023-03-13T07:48:20;10.35;;;3.40;;
52708;SDS011;38606;52.986;6.980;2023-03-13T07:50:48;14.07;;;3.78;;
52708;SDS011;38606;52.986;6.980;2023-03-13T07:53:13;10.80;;;3.67;;
52708;SDS011;38606;52.986;6.980;2023-03-13T07:56:18;11.95;;;3.92;;
52708;SDS011;38606;52.986;6.980;2023-03-13T07:58:38;13.07;;;3.53;;
52708;SDS011;38606;52.986;6.980;2023-03-13T08:01:23;8.98;;;3.20;;
52708;SDS011;38606;52.986;6.980;2023-03-13T08:03:51;11.55;;;3.08;;
52708;SDS011;38606;52.986;6.980;2023-03-13T08:06:19;10.45;;;3.05;;
52708;SDS011;38606;52.986;6.980;2023-03-13T08:08:47;7.28;;;3.00;;
52708;SDS011;38606;52.986;6.980;2023-03-13T08:11:14;6.72;;;3.08;;
52708;SDS011;38606;52.986;6.980;2023-03-13T08:13:42;10.65;;;3.08;;
52708;SDS011;38606;52.986;6.980;2023-03-13T08:16:10;10.13;;;2.67;;
52708;SDS011;38606;52.986;6.980;2023-03-13T08:18:38;9.13;;;2.70;;
52708;SDS011;38606;52.986;6.980;2023-03-13T08:21:06;6.63;;;2.42;;
52708;SDS011;38606;52.986;6.980;2023-03-13T08:23:33;14.15;;;3.47;;
52708;SDS011;38606;52.986;6.980;2023-03-13T08:26:06;9.52;;;3.53;;
52708;SDS011;38606;52.986;6.980;2023-03-13T08:28:32;8.95;;;3.60;;
52708;SDS011;38606;52.986;6.980;2023-03-13T08:31:05;12.32;;;3.15;;
52708;SDS011;38606;52.986;6.980;2023-03-13T08:33:57;10.15;;;2.95;;
52708;SDS011;38606;52.986;6.980;2023-03-13T08:36:24;7.72;;;3.00;;
52708;SDS011;38606;52.986;6.980;2023-03-13T08:38:53;4.95;;;2.65;;
52708;SDS011;38606;52.986;6.980;2023-03-13T08:41:22;5.55;;;2.58;;
52708;SDS011;38606;52.986;6.980;2023-03-13T08:43:53;6.50;;;2.85;;
52708;SDS011;38606;52.986;6.980;2023-03-13T08:46:20;7.13;;;2.70;;
52708;SDS011;38606;52.986;6.980;2023-03-13T08:48:49;5.97;;;3.22;;
52708;SDS011;38606;52.986;6.980;2023-03-13T08:51:16;7.22;;;2.90;;
52708;SDS011;38606;52.986;6.980;2023-03-13T08:53:43;6.22;;;2.58;;
52708;SDS011;38606;52.986;6.980;2023-03-13T08:56:09;6.97;;;2.60;;
52708;SDS011;38606;52.986;6.980;2023-03-13T08:58:39;9.63;;;3.08;;
52708;SDS011;38606;52.986;6.980;2023-03-13T09:01:05;5.93;;;2.50;;
52708;SDS011;38606;52.986;6.980;2023-03-13T09:03:33;7.32;;;2.50;;
52708;SDS011;38606;52.986;6.980;2023-03-13T09:05:59;4.80;;;2.22;;
52708;SDS011;38606;52.986;6.980;2023-03-13T09:08:26;4.65;;;2.50;;
52708;SDS011;38606;52.986;6.980;2023-03-13T09:11:03;5.85;;;2.60;;
52708;SDS011;38606;52.986;6.980;2023-03-13T09:13:30;4.65;;;2.13;;
52708;SDS011;38606;52.986;6.980;2023-03-13T09:15:59;6.88;;;2.55;;
52708;SDS011;38606;52.986;6.980;2023-03-13T09:18:26;7.35;;;2.60;;
52708;SDS011;38606;52.986;6.980;2023-03-13T09:20:52;4.97;;;2.10;;
52708;SDS011;38606;52.986;6.980;2023-03-13T09:23:18;5.20;;;2.10;;
52708;SDS011;38606;52.986;6.980;2023-03-13T09:25:44;7.30;;;2.10;;
52708;SDS011;38606;52.986;6.980;2023-03-13T09:28:10;8.02;;;2.30;;
52708;SDS011;38606;52.986;6.980;2023-03-13T09:30:36;6.50;;;2.30;;
52708;SDS011;38606;52.986;6.980;2023-03-13T09:33:02;6.28;;;2.13;;
52708;SDS011;38606;52.986;6.980;2023-03-13T09:35:28;8.43;;;2.08;;
52708;SDS011;38606;52.986;6.980;2023-03-13T09:37:54;9.02;;;2.83;;
52708;SDS011;38606;52.986;6.980;2023-03-13T09:40:20;4.07;;;1.70;;
52708;SDS011;38606;52.986;6.980;2023-03-13T09:42:48;4.97;;;1.85;;
52708;SDS011;38606;52.986;6.980;2023-03-13T09:45:21;3.78;;;1.80;;
52708;SDS011;38606;52.986;6.980;2023-03-13T09:50:42;6.95;;;2.75;;
52708;SDS011;38606;52.986;6.980;2023-03-13T09:53:13;5.60;;;1.98;;
52708;SDS011;38606;52.986;6.980;2023-03-13T09:55:43;7.32;;;2.17;;
52708;SDS011;38606;52.986;6.980;2023-03-13T10:00:41;6.70;;;1.60;;
52708;SDS011;38606;52.986;6.980;2023-03-13T10:03:47;7.38;;;1.83;;
52708;SDS011;38606;52.986;6.980;2023-03-13T10:06:14;7.97;;;1.77;;
52708;SDS011;38606;52.986;6.980;2023-03-13T10:08:46;5.00;;;2.00;;
52708;SDS011;38606;52.986;6.980;2023-03-13T10:11:23;6.15;;;1.60;;
52708;SDS011;38606;52.986;6.980;2023-03-13T10:14:18;8.23;;;1.85;;
52708;SDS011;38606;52.986;6.980;2023-03-13T10:19:55;9.50;;;1.60;;
52708;SDS011;38606;52.986;6.980;2023-03-13T10:22:46;5.03;;;1.40;;
52708;SDS011;38606;52.986;6.980;2023-03-13T10:27:54;8.90;;;2.38;;
52708;SDS011;38606;52.986;6.980;2023-03-13T10:32:58;5.90;;;1.77;;
52708;SDS011;38606;52.986;6.980;2023-03-13T10:35:32;6.20;;;1.80;;
52708;SDS011;38606;52.986;6.980;2023-03-13T10:38:14;6.82;;;2.13;;
52708;SDS011;38606;52.986;6.980;2023-03-13T10:40:43;6.22;;;1.98;;
52708;SDS011;38606;52.986;6.980;2023-03-13T10:43:25;8.60;;;2.28;;
52708;SDS011;38606;52.986;6.980;2023-03-13T10:45:51;6.57;;;1.63;;
52708;SDS011;38606;52.986;6.980;2023-03-13T10:48:18;8.27;;;1.73;;
52708;SDS011;38606;52.986;6.980;2023-03-13T10:50:49;14.98;;;2.50;;
52708;SDS011;38606;52.986;6.980;2023-03-13T10:55:54;5.88;;;1.73;;
52708;SDS011;38606;52.986;6.980;2023-03-13T10:58:42;10.52;;;1.88;;
52708;SDS011;38606;52.986;6.980;2023-03-13T11:03:48;14.13;;;2.63;;
52708;SDS011;38606;52.986;6.980;2023-03-13T11:06:23;7.15;;;1.50;;
52708;SDS011;38606;52.986;6.980;2023-03-13T11:08:57;9.93;;;1.90;;
52708;SDS011;38606;52.986;6.980;2023-03-13T11:11:29;9.85;;;2.33;;
52708;SDS011;38606;52.986;6.980;2023-03-13T11:14:07;7.93;;;2.00;;
52708;SDS011;38606;52.986;6.980;2023-03-13T11:16:39;7.25;;;1.70;;
52708;SDS011;38606;52.986;6.980;2023-03-13T11:24:51;8.27;;;1.85;;
52708;SDS011;38606;52.986;6.980;2023-03-13T11:30:15;5.80;;;1.85;;
52708;SDS011;38606;52.986;6.980;2023-03-13T11:33:00;7.38;;;1.77;;
52708;SDS011;38606;52.986;6.980;2023-03-13T11:35:33;8.65;;;1.63;;
52708;SDS011;38606;52.986;6.980;2023-03-13T11:38:06;5.50;;;1.50;;
52708;SDS011;38606;52.986;6.980;2023-03-13T11:41:00;9.75;;;1.90;;
52708;SDS011;38606;52.986;6.980;2023-03-13T12:00:20;3.78;;;1.20;;
52708;SDS011;38606;52.986;6.980;2023-03-13T12:03:10;4.15;;;0.93;;
52708;SDS011;38606;52.986;6.980;2023-03-13T12:05:43;5.20;;;1.77;;
52708;SDS011;38606;52.986;6.980;2023-03-13T12:08:34;3.95;;;1.20;;
52708;SDS011;38606;52.986;6.980;2023-03-13T12:11:16;3.92;;;1.00;;
52708;SDS011;38606;52.986;6.980;2023-03-13T12:13:51;5.88;;;1.58;;
52708;SDS011;38606;52.986;6.980;2023-03-13T12:16:42;5.88;;;1.48;;
52708;SDS011;38606;52.986;6.980;2023-03-13T12:19:14;4.40;;;1.00;;
52708;SDS011;38606;52.986;6.980;2023-03-13T12:21:50;5.28;;;1.30;;
52708;SDS011;38606;52.986;6.980;2023-03-13T12:24:20;6.63;;;1.20;;
52708;SDS011;38606;52.986;6.980;2023-03-13T12:27:07;11.25;;;1.45;;
52708;SDS011;38606;52.986;6.980;2023-03-13T12:37:59;6.80;;;1.30;;
52708;SDS011;38606;52.986;6.980;2023-03-13T12:40:50;7.03;;;1.45;;
52708;SDS011;38606;52.986;6.980;2023-03-13T12:43:37;4.97;;;1.17;;
52708;SDS011;38606;52.986;6.980;2023-03-13T12:46:18;8.38;;;1.65;;
52708;SDS011;38606;52.986;6.980;2023-03-13T12:59:40;7.28;;;1.98;;
52708;SDS011;38606;52.986;6.980;2023-03-13T13:02:15;4.63;;;1.27;;
52708;SDS011;38606;52.986;6.980;2023-03-13T13:04:45;8.40;;;1.65;;
52708;SDS011;38606;52.986;6.980;2023-03-13T13:07:23;7.43;;;1.80;;
52708;SDS011;38606;52.986;6.980;2023-03-13T13:12:34;7.97;;;1.77;;
52708;SDS011;38606;52.986;6.980;2023-03-13T13:15:21;5.38;;;1.30;;
52708;SDS011;38606;52.986;6.980;2023-03-13T13:17:54;8.98;;;1.58;;
52708;SDS011;38606;52.986;6.980;2023-03-13T13:20:38;6.72;;;1.45;;
52708;SDS011;38606;52.986;6.980;2023-03-13T13:23:19;6.88;;;2.08;;
52708;SDS011;38606;52.986;6.980;2023-03-13T13:25:53;7.05;;;1.65;;
52708;SDS011;38606;52.986;6.980;2023-03-13T13:28:25;8.48;;;1.80;;
52708;SDS011;38606;52.986;6.980;2023-03-13T13:30:58;18.02;;;2.60;;
52708;SDS011;38606;52.986;6.980;2023-03-13T13:38:33;7.03;;;2.47;;
52708;SDS011;38606;52.986;6.980;2023-03-13T13:43:47;11.77;;;2.45;;
52708;SDS011;38606;52.986;6.980;2023-03-13T13:51:35;11.25;;;2.00;;
52708;SDS011;38606;52.986;6.980;2023-03-13T13:56:38;7.40;;;1.67;;
52708;SDS011;38606;52.986;6.980;2023-03-13T14:04:28;11.68;;;2.08;;
52708;SDS011;38606;52.986;6.980;2023-03-13T14:07:00;10.73;;;2.25;;
52708;SDS011;38606;52.986;6.980;2023-03-13T14:12:30;9.52;;;2.58;;
52708;SDS011;38606;52.986;6.980;2023-03-13T14:17:42;7.65;;;1.92;;
52708;SDS011;38606;52.986;6.980;2023-03-13T14:20:24;14.18;;;2.38;;
52708;SDS011;38606;52.986;6.980;2023-03-13T14:22:56;13.02;;;2.67;;
52708;SDS011;38606;52.986;6.980;2023-03-13T14:25:24;12.27;;;2.78;;
52708;SDS011;38606;52.986;6.980;2023-03-13T14:27:51;13.02;;;2.60;;
52708;SDS011;38606;52.986;6.980;2023-03-13T14:30:19;13.57;;;2.55;;
52708;SDS011;38606;52.986;6.980;2023-03-13T14:32:46;13.80;;;2.70;;
52708;SDS011;38606;52.986;6.980;2023-03-13T14:35:13;13.20;;;2.70;;
52708;SDS011;38606;52.986;6.980;2023-03-13T14:37:46;10.82;;;2.25;;
52708;SDS011;38606;52.986;6.980;2023-03-13T14:42:49;20.08;;;2.85;;
52708;SDS011;38606;52.986;6.980;2023-03-13T14:45:24;13.75;;;2.55;;
52708;SDS011;38606;52.986;6.980;2023-03-13T14:50:17;14.25;;;3.28;;
52708;SDS011;38606;52.986;6.980;2023-03-13T14:53:10;15.88;;;4.00;;
52708;SDS011;38606;52.986;6.980;2023-03-13T14:55:45;21.83;;;3.42;;
52708;SDS011;38606;52.986;6.980;2023-03-13T14:58:28;15.25;;;3.33;;
52708;SDS011;38606;52.986;6.980;2023-03-13T15:00:54;14.30;;;2.70;;
52708;SDS011;38606;52.986;6.980;2023-03-13T15:03:29;14.60;;;3.10;;
52708;SDS011;38606;52.986;6.980;2023-03-13T15:06:12;18.80;;;3.88;;
52708;SDS011;38606;52.986;6.980;2023-03-13T15:13:56;16.30;;;3.03;;
52708;SDS011;38606;52.986;6.980;2023-03-13T15:16:22;14.98;;;2.97;;
52708;SDS011;38606;52.986;6.980;2023-03-13T15:18:49;16.38;;;3.03;;
52708;SDS011;38606;52.986;6.980;2023-03-13T15:21:29;13.93;;;2.50;;
52708;SDS011;38606;52.986;6.980;2023-03-13T15:26:29;14.40;;;3.15;;
52708;SDS011;38606;52.986;6.980;2023-03-13T15:28:54;17.05;;;3.00;;
52708;SDS011;38606;52.986;6.980;2023-03-13T15:31:22;19.63;;;3.60;;
52708;SDS011;38606;52.986;6.980;2023-03-13T15:33:55;17.02;;;3.35;;
52708;SDS011;38606;52.986;6.980;2023-03-13T15:36:24;19.38;;;2.92;;
52708;SDS011;38606;52.986;6.980;2023-03-13T15:38:51;15.77;;;3.08;;
52708;SDS011;38606;52.986;6.980;2023-03-13T15:41:17;16.02;;;3.00;;
52708;SDS011;38606;52.986;6.980;2023-03-13T15:43:43;23.83;;;3.13;;
52708;SDS011;38606;52.986;6.980;2023-03-13T15:46:11;18.20;;;3.15;;
52708;SDS011;38606;52.986;6.980;2023-03-13T15:48:38;20.45;;;3.40;;
52708;SDS011;38606;52.986;6.980;2023-03-13T15:51:08;16.27;;;2.92;;
52708;SDS011;38606;52.986;6.980;2023-03-13T15:53:36;21.23;;;3.67;;
52708;SDS011;38606;52.986;6.980;2023-03-13T15:56:02;16.45;;;2.72;;
52708;SDS011;38606;52.986;6.980;2023-03-13T15:58:42;20.55;;;2.90;;
52708;SDS011;38606;52.986;6.980;2023-03-13T16:01:09;24.17;;;3.97;;
52708;SDS011;38606;52.986;6.980;2023-03-13T16:03:37;18.13;;;3.03;;
52708;SDS011;38606;52.986;6.980;2023-03-13T16:06:04;20.33;;;3.53;;
52708;SDS011;38606;52.986;6.980;2023-03-13T16:08:39;17.95;;;3.00;;
52708;SDS011;38606;52.986;6.980;2023-03-13T16:11:05;19.45;;;3.78;;
52708;SDS011;38606;52.986;6.980;2023-03-13T16:13:31;20.08;;;3.40;;
52708;SDS011;38606;52.986;6.980;2023-03-13T16:15:57;19.02;;;3.45;;
52708;SDS011;38606;52.986;6.980;2023-03-13T16:18:23;21.35;;;3.17;;
52708;SDS011;38606;52.986;6.980;2023-03-13T16:20:50;21.35;;;3.80;;
52708;SDS011;38606;52.986;6.980;2023-03-13T16:23:16;19.55;;;3.60;;
52708;SDS011;38606;52.986;6.980;2023-03-13T16:25:45;26.08;;;3.92;;
52708;SDS011;38606;52.986;6.980;2023-03-13T16:28:12;19.73;;;3.80;;
52708;SDS011;38606;52.986;6.980;2023-03-13T16:30:39;24.05;;;4.07;;
52708;SDS011;38606;52.986;6.980;2023-03-13T16:33:07;17.92;;;3.38;;
52708;SDS011;38606;52.986;6.980;2023-03-13T16:35:34;20.65;;;3.28;;
52708;SDS011;38606;52.986;6.980;2023-03-13T16:38:00;21.02;;;3.28;;
52708;SDS011;38606;52.986;6.980;2023-03-13T16:40:30;21.05;;;4.10;;
52708;SDS011;38606;52.986;6.980;2023-03-13T16:42:56;25.55;;;3.83;;
52708;SDS011;38606;52.986;6.980;2023-03-13T16:45:22;20.08;;;3.95;;
52708;SDS011;38606;52.986;6.980;2023-03-13T16:47:48;20.48;;;4.25;;